Time;durP1;ratioP1;P1;durP2;ratioP2;P2;SDS_P1;SDS_P2;PMS_P1;PMS_P2;Temp;Humidity;BMP_temperature;BMP_pressure;BME280_temperature;BME280_humidity;BME280_pressure;Samples;Min_cycle;Max_cycle;Signal;HPM_P1;HPM_P2
2024/02/01 00:01:29;;;;;;;6.80;4.20;;;12.00;99.90;;;;;;5022635;28;20211;-59
2024/02/01 00:03:55;;;;;;;5.30;3.37;;;12.00;99.90;;;;;;5025592;28;20301;-59
2024/02/01 00:06:22;;;;;;;6.30;4.07;;;12.10;99.90;;;;;;5025931;28;20229;-58
2024/02/01 00:09:00;;;;;;;5.80;2.93;;;12.20;99.90;;;;;;5023569;28;20203;-59
2024/02/01 00:11:27;;;;;;;7.17;2.90;;;12.30;99.90;;;;;;5022446;28;20665;-58
2024/02/01 00:13:53;;;;;;;3.87;2.90;;;12.30;99.90;;;;;;5025116;28;20265;-59
2024/02/01 00:16:21;;;;;;;4.73;3.03;;;12.30;99.90;;;;;;5025773;28;20237;-59
2024/02/01 00:18:48;;;;;;;7.50;3.90;;;12.40;99.90;;;;;;5023398;28;20313;-60
2024/02/01 00:21:16;;;;;;;4.23;3.20;;;12.40;99.90;;;;;;5022965;28;20226;-58
2024/02/01 00:23:43;;;;;;;4.67;3.00;;;12.40;99.90;;;;;;5023612;28;20277;-59
2024/02/01 00:26:11;;;;;;;7.83;3.20;;;12.50;99.90;;;;;;5025754;28;20229;-59
2024/02/01 00:28:37;;;;;;;7.63;2.90;;;12.50;99.90;;;;;;5024691;28;20302;-58
2024/02/01 00:31:04;;;;;;;4.00;2.60;;;12.60;99.90;;;;;;5021971;28;20207;-59
2024/02/01 00:33:31;;;;;;;6.43;3.37;;;12.60;99.90;;;;;;5021879;28;20253;-58
2024/02/01 00:35:57;;;;;;;6.93;4.40;;;12.50;99.90;;;;;;5024968;28;20223;-58
2024/02/01 00:38:24;;;;;;;6.23;5.03;;;12.20;99.90;;;;;;5025284;28;20710;-58
2024/02/01 00:40:51;;;;;;;10.30;5.27;;;11.90;99.90;;;;;;5022917;28;20746;-58
2024/02/01 00:43:19;;;;;;;7.87;5.10;;;11.60;99.90;;;;;;5021806;28;20207;-59
2024/02/01 00:45:45;;;;;;;7.67;4.77;;;11.50;99.90;;;;;;5023179;28;20235;-58
2024/02/01 00:48:12;;;;;;;8.70;4.90;;;11.60;99.90;;;;;;5023746;28;20213;-61
2024/02/01 00:50:39;;;;;;;7.57;4.90;;;11.80;99.90;;;;;;5024703;28;20229;-58
2024/02/01 00:53:05;;;;;;;6.30;4.83;;;11.90;99.90;;;;;;5021832;28;20253;-58
2024/02/01 00:55:32;;;;;;;8.60;5.27;;;11.70;99.90;;;;;;5021812;28;20222;-61
2024/02/01 00:57:58;;;;;;;12.40;6.00;;;11.30;99.90;;;;;;5024782;28;20273;-59
2024/02/01 01:00:27;;;;;;;9.40;6.23;;;11.10;99.90;;;;;;5025002;28;20632;-58
2024/02/01 01:02:53;;;;;;;10.40;6.07;;;10.90;99.90;;;;;;5022884;28;20218;-58
2024/02/01 01:05:20;;;;;;;10.30;5.43;;;10.90;99.90;;;;;;5021969;28;20281;-61
2024/02/01 01:07:47;;;;;;;7.20;5.17;;;11.00;99.90;;;;;;5023260;28;20210;-58
2024/02/01 01:10:14;;;;;;;8.73;5.40;;;11.10;99.90;;;;;;5025472;28;20202;-59
2024/02/01 01:12:40;;;;;;;7.77;4.93;;;11.20;99.90;;;;;;5023719;28;20632;-60
2024/02/01 01:15:07;;;;;;;8.30;4.90;;;11.40;99.90;;;;;;5020983;28;20285;-58
2024/02/01 01:17:35;;;;;;;10.33;4.80;;;11.50;99.90;;;;;;5021099;28;20249;-58
2024/02/01 01:20:03;;;;;;;7.93;4.50;;;11.50;99.90;;;;;;5013368;28;20206;-58
2024/02/01 01:22:30;;;;;;;6.50;4.93;;;11.60;99.90;;;;;;5021134;28;20203;-58
2024/02/01 01:24:57;;;;;;;6.73;4.60;;;11.60;99.90;;;;;;5023833;28;20282;-60
2024/02/01 01:27:23;;;;;;;8.30;5.17;;;11.70;99.90;;;;;;5024098;28;20672;-59
2024/02/01 01:29:50;;;;;;;6.87;5.00;;;11.80;99.90;;;;;;5022382;28;20613;-59
2024/02/01 01:32:17;;;;;;;10.57;5.40;;;11.80;99.90;;;;;;5020827;28;20207;-61
2024/02/01 01:34:45;;;;;;;6.50;5.07;;;11.70;99.90;;;;;;5021906;28;20227;-59
2024/02/01 01:37:12;;;;;;;10.40;5.53;;;11.60;99.90;;;;;;5024075;28;20225;-58
2024/02/01 01:39:38;;;;;;;10.53;6.07;;;11.60;99.90;;;;;;5023609;28;20229;-58
2024/02/01 01:42:05;;;;;;;7.57;5.37;;;11.40;99.90;;;;;;5020603;28;20211;-61
2024/02/01 01:44:32;;;;;;;9.17;5.47;;;11.20;99.90;;;;;;5020684;28;20712;-59
2024/02/01 01:46:59;;;;;;;8.37;5.87;;;11.30;99.90;;;;;;5023093;28;20206;-59
2024/02/01 01:49:25;;;;;;;7.33;5.57;;;11.30;99.90;;;;;;5024239;28;20268;-60
2024/02/01 01:51:55;;;;;;;5.77;5.13;;;11.40;99.90;;;;;;5021814;28;20279;-59
2024/02/01 01:54:24;;;;;;;8.23;5.37;;;11.40;99.90;;;;;;5020776;28;20223;-60
2024/02/01 01:56:51;;;;;;;9.43;5.73;;;11.20;99.90;;;;;;5021829;28;20207;-59
2024/02/01 01:59:20;;;;;;;8.37;5.13;;;11.10;99.90;;;;;;5023464;28;20272;-59
2024/02/01 02:01:48;;;;;;;9.00;6.03;;;11.00;99.90;;;;;;5022391;28;20205;-59
2024/02/01 02:04:15;;;;;;;9.90;5.70;;;10.90;99.90;;;;;;5020273;28;20207;-58
2024/02/01 02:06:43;;;;;;;8.50;5.43;;;10.80;99.90;;;;;;5020719;28;20241;-59
2024/02/01 02:09:13;;;;;;;6.63;5.23;;;10.80;99.90;;;;;;5023420;28;20253;-59
2024/02/01 02:11:43;;;;;;;7.40;5.23;;;10.70;99.90;;;;;;5022837;28;20597;-60
2024/02/01 02:14:10;;;;;;;8.33;5.63;;;10.70;99.90;;;;;;5020169;28;20233;-58
2024/02/01 02:16:37;;;;;;;9.60;6.07;;;10.70;99.90;;;;;;5019959;28;20264;-62
2024/02/01 02:19:09;;;;;;;7.17;5.43;;;10.80;99.90;;;;;;5023489;28;20218;-59
2024/02/01 02:21:39;;;;;;;8.37;5.57;;;10.70;99.90;;;;;;5023525;28;20198;-58
2024/02/01 02:24:08;;;;;;;7.37;5.20;;;10.70;99.90;;;;;;5012581;28;20203;-59
2024/02/01 02:26:34;;;;;;;7.20;5.60;;;10.50;99.90;;;;;;5020178;28;20199;-58
2024/02/01 02:29:02;;;;;;;10.10;5.60;;;10.50;99.90;;;;;;5022941;28;20199;-58
2024/02/01 02:31:29;;;;;;;7.70;5.20;;;10.50;99.90;;;;;;5023408;28;20225;-59
2024/02/01 02:33:55;;;;;;;10.47;6.20;;;10.50;99.90;;;;;;5020838;28;20293;-58
2024/02/01 02:36:22;;;;;;;6.53;5.20;;;10.60;99.90;;;;;;5019789;28;20237;-62
2024/02/01 02:38:49;;;;;;;7.13;5.63;;;10.60;99.90;;;;;;5021145;28;20231;-58
2024/02/01 02:41:17;;;;;;;9.70;5.17;;;10.70;99.90;;;;;;5023241;28;20213;-59
2024/02/01 02:43:44;;;;;;;6.07;4.63;;;10.90;99.90;;;;;;5022356;28;20202;-58
2024/02/01 02:46:11;;;;;;;9.93;5.70;;;11.00;99.90;;;;;;5019520;28;20253;-58
2024/02/01 02:48:38;;;;;;;5.27;4.27;;;10.90;99.90;;;;;;5019573;28;20218;-58
2024/02/01 02:51:05;;;;;;;5.90;4.57;;;10.80;99.90;;;;;;5011634;28;20286;-58
2024/02/01 02:53:32;;;;;;;5.17;4.27;;;10.80;99.90;;;;;;5019747;28;20203;-58
2024/02/01 02:55:59;;;;;;;6.23;4.10;;;10.90;99.90;;;;;;5022422;28;20600;-59
2024/02/01 02:58:27;;;;;;;5.73;3.90;;;10.90;99.90;;;;;;5023044;28;20272;-58
2024/02/01 03:00:54;;;;;;;6.57;3.90;;;11.00;99.90;;;;;;5020936;28;20206;-58
2024/02/01 03:03:20;;;;;;;6.03;4.13;;;10.90;99.90;;;;;;5019743;28;20207;-58
2024/02/01 03:05:47;;;;;;;5.20;3.97;;;10.80;99.90;;;;;;5020576;28;20237;-58
2024/02/01 03:08:13;;;;;;;5.93;4.13;;;10.90;99.90;;;;;;5022890;28;20206;-59
2024/02/01 03:10:41;;;;;;;5.27;4.07;;;11.00;99.90;;;;;;5022863;28;20214;-59
2024/02/01 03:13:09;;;;;;;6.40;4.07;;;11.10;99.90;;;;;;5022438;28;20199;-58
2024/02/01 03:15:37;;;;;;;5.77;4.07;;;11.30;99.90;;;;;;5023238;28;20377;-58
2024/02/01 03:18:05;;;;;;;7.00;4.00;;;11.30;99.90;;;;;;5026309;28;20218;-59
2024/02/01 03:20:32;;;;;;;4.97;3.80;;;11.40;99.90;;;;;;5026395;28;20225;-58
2024/02/01 03:22:59;;;;;;;4.77;3.53;;;11.40;99.90;;;;;;5023905;28;20210;-59
2024/02/01 03:25:29;;;;;;;6.20;4.07;;;11.50;99.90;;;;;;5022985;28;20227;-59
2024/02/01 03:28:01;;;;;;;5.87;3.90;;;11.60;99.90;;;;;;5025033;28;20206;-59
2024/02/01 03:30:29;;;;;;;5.73;3.83;;;11.60;99.90;;;;;;5026349;28;20285;-59
2024/02/01 03:32:57;;;;;;;4.87;4.07;;;11.60;99.90;;;;;;5024101;28;20233;-59
2024/02/01 03:35:24;;;;;;;7.07;3.80;;;11.70;99.90;;;;;;5023142;28;20234;-59
2024/02/01 03:37:50;;;;;;;5.43;4.13;;;11.70;99.90;;;;;;5023915;28;20676;-58
2024/02/01 03:40:19;;;;;;;5.80;3.97;;;11.70;99.90;;;;;;5026097;28;20218;-60
2024/02/01 03:42:46;;;;;;;5.43;4.23;;;11.70;99.90;;;;;;5025641;28;20206;-59
2024/02/01 03:45:13;;;;;;;5.77;4.20;;;11.70;99.90;;;;;;5022383;28;20638;-59
2024/02/01 03:47:40;;;;;;;4.97;3.80;;;11.80;99.90;;;;;;5022523;28;20211;-59
2024/02/01 03:50:09;;;;;;;4.77;3.60;;;11.80;99.90;;;;;;5014732;28;20207;-59
2024/02/01 03:52:37;;;;;;;7.60;3.90;;;11.90;99.90;;;;;;5022697;28;20298;-59
2024/02/01 03:55:12;;;;;;;6.13;4.03;;;11.80;99.90;;;;;;5025622;28;20309;-61
2024/02/01 03:57:39;;;;;;;5.33;4.30;;;11.80;99.90;;;;;;5025487;28;20766;-59
2024/02/01 04:00:24;;;;;;;6.70;3.80;;;11.80;99.90;;;;;;5022539;28;20227;-60
2024/02/01 04:02:52;;;;;;;9.50;4.17;;;11.80;99.90;;;;;;5023774;28;20207;-59
2024/02/01 04:05:20;;;;;;;6.43;3.70;;;11.70;99.90;;;;;;5025958;28;20249;-59
2024/02/01 04:07:47;;;;;;;4.50;3.57;;;11.80;99.90;;;;;;5024510;28;20210;-59
2024/02/01 04:10:14;;;;;;;4.10;3.33;;;11.80;99.90;;;;;;5022126;28;20223;-58
2024/02/01 04:12:40;;;;;;;4.47;3.73;;;11.80;99.90;;;;;;5022464;28;20614;-60
2024/02/01 04:15:08;;;;;;;7.23;3.50;;;11.70;99.90;;;;;;5014203;28;20230;-59
2024/02/01 04:17:35;;;;;;;5.97;4.10;;;11.50;99.90;;;;;;5022367;28;20218;-59
2024/02/01 04:20:01;;;;;;;4.00;3.27;;;11.30;99.90;;;;;;5025034;28;20230;-58
2024/02/01 04:22:29;;;;;;;4.27;3.40;;;11.20;99.90;;;;;;5025623;28;20283;-61
2024/02/01 04:24:56;;;;;;;4.83;3.50;;;11.10;99.90;;;;;;5023407;28;20222;-62
2024/02/01 04:27:23;;;;;;;4.27;3.40;;;11.30;99.90;;;;;;5021971;28;20214;-58
2024/02/01 04:29:50;;;;;;;6.17;3.60;;;11.40;99.90;;;;;;5023168;28;20297;-58
2024/02/01 04:32:16;;;;;;;6.00;3.50;;;11.40;99.90;;;;;;5025386;28;20253;-60
2024/02/01 04:34:43;;;;;;;4.43;3.50;;;11.50;99.90;;;;;;5024937;28;20719;-59
2024/02/01 04:37:12;;;;;;;3.87;3.30;;;11.60;99.90;;;;;;5021524;28;20673;-59
2024/02/01 04:39:40;;;;;;;4.10;3.70;;;11.60;99.90;;;;;;5021953;28;20233;-61
2024/02/01 04:42:15;;;;;;;4.57;3.40;;;11.60;99.90;;;;;;5025318;28;20206;-58
2024/02/01 04:44:42;;;;;;;3.90;3.20;;;11.50;99.90;;;;;;5025302;28;20225;-59
2024/02/01 04:47:08;;;;;;;5.37;3.50;;;11.50;99.90;;;;;;5021644;28;20286;-58
2024/02/01 04:49:35;;;;;;;5.60;3.43;;;11.60;99.90;;;;;;5021786;28;20206;-59
2024/02/01 04:52:02;;;;;;;5.87;3.57;;;11.70;99.90;;;;;;5024263;28;20214;-58
2024/02/01 04:54:29;;;;;;;5.57;4.00;;;11.70;99.90;;;;;;5025219;28;20683;-60
2024/02/01 04:56:57;;;;;;;5.53;4.00;;;11.80;99.90;;;;;;5023049;28;20210;-59
2024/02/01 04:59:23;;;;;;;6.07;3.80;;;11.80;99.90;;;;;;5021418;28;20223;-57
2024/02/01 05:01:50;;;;;;;7.23;3.87;;;11.90;99.90;;;;;;5022421;28;20226;-60
2024/02/01 05:04:18;;;;;;;5.10;3.50;;;11.90;99.90;;;;;;5024580;28;20671;-57
2024/02/01 05:06:45;;;;;;;4.83;3.50;;;11.80;99.90;;;;;;5024421;28;20336;-62
2024/02/01 05:09:25;;;;;;;4.47;3.47;;;11.70;99.90;;;;;;5021466;28;20262;-57
2024/02/01 05:11:52;;;;;;;4.60;3.73;;;11.70;99.90;;;;;;5022587;28;20207;-59
2024/02/01 05:14:21;;;;;;;7.03;3.60;;;11.40;99.90;;;;;;5024481;28;20344;-58
2024/02/01 05:16:49;;;;;;;5.13;3.47;;;11.10;99.90;;;;;;5023459;28;20210;-59
2024/02/01 05:19:16;;;;;;;5.90;4.20;;;11.00;99.90;;;;;;5021281;28;20227;-59
2024/02/01 05:21:42;;;;;;;8.40;4.10;;;11.10;99.90;;;;;;5021263;28;20218;-57
2024/02/01 05:24:13;;;;;;;5.23;3.90;;;11.30;99.90;;;;;;5024564;28;20570;-58
2024/02/01 05:26:40;;;;;;;4.63;3.30;;;11.30;99.90;;;;;;5024099;28;20264;-60
2024/02/01 05:29:09;;;;;;;4.93;3.53;;;11.20;99.90;;;;;;5020884;28;20207;-58
2024/02/01 05:31:37;;;;;;;5.33;3.80;;;11.20;99.90;;;;;;5020772;28;20202;-60
2024/02/01 05:34:05;;;;;;;4.00;3.40;;;11.20;99.90;;;;;;5023243;28;20221;-60
2024/02/01 05:36:32;;;;;;;7.53;3.93;;;11.30;99.90;;;;;;5024104;28;20218;-60
2024/02/01 05:38:59;;;;;;;6.03;4.40;;;11.40;99.90;;;;;;5021945;28;20297;-58
2024/02/01 05:41:26;;;;;;;6.90;4.00;;;11.50;99.90;;;;;;5020682;28;20298;-60
2024/02/01 05:43:52;;;;;;;6.27;4.20;;;11.60;99.90;;;;;;5021569;28;20211;-58
2024/02/01 05:46:19;;;;;;;5.93;3.97;;;11.70;99.90;;;;;;5023657;28;20641;-59
2024/02/01 05:48:47;;;;;;;8.27;4.93;;;11.70;99.90;;;;;;5023325;28;20236;-61
2024/02/01 05:51:14;;;;;;;5.57;4.67;;;11.70;99.90;;;;;;5020525;28;20327;-61
2024/02/01 05:53:41;;;;;;;8.20;4.40;;;11.70;99.90;;;;;;5020393;28;20207;-58
2024/02/01 05:56:07;;;;;;;7.37;4.63;;;11.70;99.90;;;;;;5023402;28;20225;-58
2024/02/01 05:58:34;;;;;;;6.87;4.70;;;11.50;99.90;;;;;;5023961;28;20206;-59
2024/02/01 06:01:01;;;;;;;7.07;4.73;;;11.20;99.90;;;;;;5021417;28;20673;-59
2024/02/01 06:03:30;;;;;;;8.93;4.47;;;11.10;99.90;;;;;;5020395;28;20286;-58
2024/02/01 06:05:58;;;;;;;5.37;4.03;;;11.10;99.90;;;;;;5021858;28;20231;-58
2024/02/01 06:08:24;;;;;;;7.83;4.17;;;10.90;99.90;;;;;;5023536;28;20280;-60
2024/02/01 06:10:51;;;;;;;7.27;4.00;;;10.70;99.90;;;;;;5022637;28;20202;-58
2024/02/01 06:13:18;;;;;;;5.30;4.40;;;10.90;99.90;;;;;;5020228;28;20203;-57
2024/02/01 06:15:45;;;;;;;6.40;4.10;;;11.00;99.90;;;;;;5020301;28;20231;-62
2024/02/01 06:18:12;;;;;;;7.20;3.90;;;11.10;99.90;;;;;;5020116;28;20203;-57
2024/02/01 06:20:39;;;;;;;5.33;3.87;;;11.20;99.90;;;;;;5020192;28;20231;-59
2024/02/01 06:23:07;;;;;;;6.77;4.10;;;11.20;99.90;;;;;;5022886;28;20206;-58
2024/02/01 06:25:33;;;;;;;5.67;4.00;;;11.10;99.90;;;;;;5023507;28;20297;-58
2024/02/01 06:28:00;;;;;;;7.50;3.60;;;11.10;99.90;;;;;;5021158;28;20210;-57
2024/02/01 06:30:27;;;;;;;6.53;3.80;;;11.10;99.90;;;;;;5020253;28;20199;-58
2024/02/01 06:32:53;;;;;;;4.83;3.43;;;11.20;99.90;;;;;;5021130;28;20637;-58
2024/02/01 06:35:22;;;;;;;7.73;4.37;;;11.20;99.90;;;;;;5023649;28;20276;-57
2024/02/01 06:37:57;;;;;;;5.20;3.27;;;11.20;99.90;;;;;;5022559;28;20210;-57
2024/02/01 06:40:37;;;;;;;5.80;3.53;;;11.20;99.90;;;;;;5019914;28;20305;-58
2024/02/01 06:43:11;;;;;;;6.23;4.50;;;11.20;99.90;;;;;;5022456;28;20214;-57
2024/02/01 06:45:45;;;;;;;9.00;5.67;;;11.30;99.90;;;;;;5023872;28;20225;-58
2024/02/01 06:48:12;;;;;;;8.80;5.00;;;11.30;99.90;;;;;;5023453;28;20749;-61
2024/02/01 06:50:54;;;;;;;9.20;5.43;;;11.20;99.90;;;;;;5023585;28;20203;-59
2024/02/01 06:53:23;;;;;;;7.70;4.20;;;11.20;99.90;;;;;;5027301;28;20217;-58
2024/02/01 06:55:59;;;;;;;7.00;4.53;;;11.20;99.90;;;;;;5026528;28;20225;-58
2024/02/01 06:58:39;;;;;;;9.97;4.53;;;11.20;99.90;;;;;;5023445;28;20199;-57
2024/02/01 07:01:24;;;;;;;6.83;3.90;;;11.20;99.90;;;;;;5026083;28;20774;-61
2024/02/01 07:04:07;;;;;;;8.70;4.37;;;11.20;99.90;;;;;;5026315;28;20241;-59
2024/02/01 07:06:38;;;;;;;9.43;3.97;;;11.20;99.90;;;;;;5023631;28;20203;-59
2024/02/01 07:09:27;;;;;;;8.67;4.33;;;11.20;99.90;;;;;;5026052;28;20206;-60
2024/02/01 07:12:15;;;;;;;7.80;4.07;;;11.30;99.90;;;;;;5025690;28;20276;-59
2024/02/01 07:14:48;;;;;;;7.80;4.57;;;11.20;99.90;;;;;;5023274;28;20616;-59
2024/02/01 07:17:27;;;;;;;5.53;4.43;;;11.20;99.90;;;;;;5015598;28;20194;-58
2024/02/01 07:19:55;;;;;;;6.87;5.40;;;11.20;99.90;;;;;;5023933;28;20265;-58
2024/02/01 07:22:38;;;;;;;5.70;4.37;;;11.20;99.90;;;;;;5027004;28;20203;-59
2024/02/01 07:25:33;;;;;;;6.57;4.43;;;11.30;99.90;;;;;;5023957;28;20620;-59
2024/02/01 07:58:19;;;;;;;9.73;4.70;;;11.00;99.90;;;;;;5014431;28;20210;-60
2024/02/01 08:00:51;;;;;;;8.17;4.30;;;11.10;99.90;;;;;;5022502;28;20229;-58
2024/02/01 08:03:32;;;;;;;6.60;4.33;;;11.10;99.90;;;;;;5022535;28;20214;-58
2024/02/01 08:08:43;;;;;;;7.90;4.40;;;11.20;99.90;;;;;;5025809;28;20633;-63
2024/02/01 08:11:17;;;;;;;7.83;4.27;;;11.30;99.90;;;;;;5022743;28;20211;-62
2024/02/01 08:13:48;;;;;;;8.90;4.70;;;11.30;99.90;;;;;;5022141;28;20317;-62
2024/02/01 08:16:18;;;;;;;8.00;4.63;;;11.20;99.90;;;;;;5014469;28;20285;-62
2024/02/01 08:18:45;;;;;;;8.63;4.37;;;10.90;99.90;;;;;;5022062;28;20673;-63
2024/02/01 08:21:15;;;;;;;7.10;4.50;;;10.70;99.90;;;;;;5025506;28;20313;-62
2024/02/01 08:23:42;;;;;;;7.97;4.30;;;10.60;99.90;;;;;;5025472;28;20252;-62
2024/02/01 08:26:08;;;;;;;7.43;4.50;;;10.80;99.90;;;;;;5022510;28;20227;-62
2024/02/01 08:28:35;;;;;;;6.63;4.27;;;10.90;99.90;;;;;;5021620;28;20211;-62
2024/02/01 08:31:08;;;;;;;6.93;4.63;;;11.00;99.90;;;;;;5023954;28;20238;-62
2024/02/01 08:33:36;;;;;;;13.70;7.23;;;11.10;99.90;;;;;;5025413;28;20205;-62
2024/02/01 08:36:03;;;;;;;6.97;4.20;;;11.20;99.90;;;;;;5022940;28;20719;-62
2024/02/01 08:38:32;;;;;;;6.40;4.30;;;11.20;99.90;;;;;;5021561;28;20207;-62
2024/02/01 08:40:58;;;;;;;10.60;4.20;;;11.10;99.90;;;;;;5022802;28;20305;-62
2024/02/01 08:43:25;;;;;;;5.27;4.27;;;10.90;99.90;;;;;;5025279;28;20680;-61
2024/02/01 08:45:52;;;;;;;13.33;10.33;;;10.60;99.90;;;;;;5024617;28;20233;-62
2024/02/01 08:48:20;;;;;;;7.80;5.20;;;10.50;99.90;;;;;;5021764;28;20203;-62
2024/02/01 08:50:49;;;;;;;6.40;4.73;;;10.60;99.90;;;;;;5021832;28;20206;-62
2024/02/01 08:53:18;;;;;;;17.00;13.27;;;10.80;99.90;;;;;;5013687;28;20682;-62
2024/02/01 08:55:51;;;;;;;8.33;4.60;;;10.90;99.90;;;;;;5021429;28;20232;-62
2024/02/01 08:58:20;;;;;;;7.00;4.30;;;11.00;99.90;;;;;;5013948;28;20198;-62
2024/02/01 09:00:47;;;;;;;7.63;3.60;;;11.00;99.90;;;;;;5021360;28;20317;-63
2024/02/01 09:03:16;;;;;;;4.97;3.37;;;11.20;99.90;;;;;;5024847;28;20241;-63
2024/02/01 09:05:45;;;;;;;4.60;3.60;;;11.30;99.90;;;;;;5024729;28;20264;-62
2024/02/01 09:08:14;;;;;;;6.40;3.77;;;11.40;99.90;;;;;;5021112;28;20218;-62
2024/02/01 09:10:50;;;;;;;9.70;3.63;;;11.50;99.90;;;;;;5020310;28;20259;-62
2024/02/01 09:13:18;;;;;;;7.47;3.40;;;11.60;99.90;;;;;;5024723;28;20626;-62
2024/02/01 09:15:44;;;;;;;7.33;3.70;;;11.60;99.90;;;;;;5024510;28;20608;-62
2024/02/01 09:18:11;;;;;;;5.40;3.63;;;11.60;99.90;;;;;;5021201;28;20207;-62
2024/02/01 09:20:38;;;;;;;4.00;2.97;;;11.60;99.90;;;;;;5020758;28;20222;-63
2024/02/01 09:23:06;;;;;;;6.57;3.57;;;11.70;99.90;;;;;;5023447;28;20238;-63
2024/02/01 09:25:34;;;;;;;5.57;3.47;;;11.80;99.90;;;;;;5024306;28;20634;-62
2024/02/01 09:28:11;;;;;;;5.70;3.60;;;11.80;99.90;;;;;;5022561;28;20237;-63
2024/02/01 09:30:48;;;;;;;5.20;2.70;;;11.90;99.90;;;;;;5089155;28;20969;-63
2024/02/01 09:33:15;;;;;;;3.53;2.80;;;12.00;99.90;;;;;;5089149;28;20262;-62
2024/02/01 09:35:42;;;;;;;5.60;2.90;;;12.20;99.90;;;;;;5074528;28;20221;-62
2024/02/01 09:38:09;;;;;;;3.87;2.70;;;12.20;99.90;;;;;;5068612;28;20205;-62
2024/02/01 09:40:41;;;;;;;4.00;2.20;;;12.30;99.90;;;;;;5068764;28;20209;-61
2024/02/01 09:43:17;;;;;;;3.53;2.60;;;12.40;99.90;;;;;;5068995;28;20213;-61
2024/02/01 09:45:44;;;;;;;4.40;2.40;;;12.50;99.90;;;;;;5068597;28;20270;-58
2024/02/01 09:48:16;;;;;;;3.80;2.37;;;12.60;99.90;;;;;;5068349;28;20221;-59
2024/02/01 09:50:46;;;;;;;4.53;1.90;;;12.80;99.90;;;;;;5068663;28;20231;-57
2024/02/01 09:53:14;;;;;;;6.77;2.50;;;12.90;99.90;;;;;;5068683;28;20204;-59
2024/02/01 09:55:40;;;;;;;3.93;1.90;;;13.00;99.90;;;;;;5068431;28;20303;-58
2024/02/01 09:58:08;;;;;;;5.27;2.43;;;13.10;99.90;;;;;;5067969;28;20236;-59
2024/02/01 10:00:34;;;;;;;5.53;3.93;;;13.10;99.90;;;;;;5068495;28;20220;-58
2024/02/01 10:03:01;;;;;;;3.17;2.50;;;13.20;99.90;;;;;;5068358;28;20213;-59
2024/02/01 10:05:32;;;;;;;4.80;1.80;;;13.30;99.90;;;;;;5068222;28;20598;-61
2024/02/01 10:07:59;;;;;;;6.03;4.17;;;13.30;99.90;;;;;;5068068;28;20236;-61
2024/02/01 10:10:26;;;;;;;6.53;5.37;;;13.40;99.90;;;;;;5067969;28;20307;-59
2024/02/01 10:12:58;;;;;;;3.80;1.93;;;13.30;99.90;;;;;;5067850;28;20205;-61
2024/02/01 10:15:30;;;;;;;2.87;1.80;;;13.30;99.90;;;;;;5068135;28;20316;-60
2024/02/01 10:17:58;;;;;;;6.47;2.17;;;13.30;99.90;;;;;;5067887;28;20213;-62
2024/02/01 10:20:35;;;;;;;2.00;1.73;;;13.20;99.90;;;;;;5068212;28;20193;-62
2024/02/01 10:23:04;;;;;;;14.73;10.60;;;13.20;99.90;;;;;;5067901;28;20255;-62
2024/02/01 10:25:38;;;;;;;4.50;2.10;;;13.30;99.90;;;;;;5068115;28;20221;-62
2024/02/01 10:28:07;;;;;;;4.60;1.93;;;13.20;99.90;;;;;;5067679;28;20211;-62
2024/02/01 10:30:36;;;;;;;2.73;1.60;;;13.10;99.90;;;;;;5067743;28;20217;-62
2024/02/01 10:33:04;;;;;;;3.10;1.73;;;13.00;99.90;;;;;;5067851;28;20205;-62
2024/02/01 10:35:32;;;;;;;2.50;1.60;;;13.00;99.90;;;;;;5067586;28;20252;-62
2024/02/01 10:38:01;;;;;;;2.90;1.70;;;12.90;99.90;;;;;;5067448;28;20233;-62
2024/02/01 10:40:39;;;;;;;3.97;1.77;;;12.80;99.90;;;;;;5063611;28;20285;-62
2024/02/01 10:43:07;;;;;;;2.93;2.53;;;12.80;99.90;;;;;;5054400;28;20296;-62
2024/02/01 10:45:36;;;;;;;3.63;1.90;;;12.90;99.90;;;;;;5054160;28;20312;-62
2024/02/01 10:48:09;;;;;;;2.60;1.53;;;12.90;99.90;;;;;;5053797;28;20296;-63
2024/02/01 10:50:37;;;;;;;2.23;1.63;;;12.90;99.90;;;;;;5054404;28;20271;-60
2024/02/01 10:53:07;;;;;;;3.90;2.30;;;13.00;99.90;;;;;;5054184;28;20202;-62
2024/02/01 10:55:38;;;;;;;2.90;2.07;;;13.00;99.90;;;;;;5053968;28;20656;-62
2024/02/01 10:58:05;;;;;;;5.57;3.07;;;13.00;99.90;;;;;;5053874;28;20252;-63
2024/02/01 11:00:32;;;;;;;2.30;1.80;;;12.80;99.90;;;;;;5054005;28;20620;-62
2024/02/01 11:03:05;;;;;;;2.43;1.70;;;12.70;99.90;;;;;;5053952;28;20236;-61
2024/02/01 11:05:32;;;;;;;3.03;2.10;;;12.70;99.90;;;;;;5054121;28;20233;-63
2024/02/01 11:07:59;;;;;;;4.03;1.43;;;12.70;99.90;;;;;;5054005;28;20214;-63
2024/02/01 11:10:27;;;;;;;2.73;1.63;;;12.70;99.90;;;;;;5054402;28;20217;-62
2024/02/01 11:12:56;;;;;;;2.00;1.50;;;12.70;99.90;;;;;;5054294;28;20586;-61
2024/02/01 11:15:24;;;;;;;2.13;1.50;;;12.70;99.90;;;;;;5053927;28;20221;-62
2024/02/01 11:17:50;;;;;;;2.20;1.50;;;12.70;99.90;;;;;;5053547;28;20206;-62
2024/02/01 11:20:22;;;;;;;2.47;1.30;;;12.80;99.90;;;;;;5057639;28;20202;-65
2024/02/01 11:22:55;;;;;;;1.60;1.30;;;12.80;99.90;;;;;;5066121;28;20209;-63
2024/02/01 11:25:27;;;;;;;2.23;1.13;;;12.90;99.90;;;;;;5045923;28;20271;-62
2024/02/01 11:27:58;;;;;;;2.00;1.10;;;12.80;99.90;;;;;;5053140;28;20209;-59
2024/02/01 11:30:28;;;;;;;2.77;1.30;;;12.80;99.90;;;;;;5053234;28;20252;-59
2024/02/01 11:32:55;;;;;;;1.40;1.10;;;12.70;99.90;;;;;;5053354;28;20205;-60
2024/02/01 11:35:22;;;;;;;2.60;1.20;;;12.70;99.90;;;;;;5053377;28;20275;-61
2024/02/01 11:37:55;;;;;;;1.60;1.50;;;12.80;99.90;;;;;;5053029;28;20295;-59
2024/02/01 11:40:22;;;;;;;4.33;3.07;;;12.80;99.90;;;;;;5045713;28;20281;-61
2024/02/01 11:42:49;;;;;;;2.60;1.60;;;12.90;99.90;;;;;;5053331;28;20220;-58
2024/02/01 11:45:18;;;;;;;2.90;1.40;;;12.90;99.90;;;;;;5052765;28;20703;-59
2024/02/01 11:47:45;;;;;;;4.20;2.23;;;13.00;99.90;;;;;;5052785;28;20205;-61
2024/02/01 11:50:12;;;;;;;1.97;1.50;;;13.00;99.90;;;;;;5052923;28;20217;-60
2024/02/01 11:52:51;;;;;;;2.40;1.37;;;13.10;99.90;;;;;;5051855;28;20657;-59
2024/02/01 11:55:18;;;;;;;2.27;1.60;;;13.10;99.90;;;;;;5052891;28;20225;-59
2024/02/01 11:57:47;;;;;;;2.90;1.63;;;13.10;99.90;;;;;;5052889;28;20232;-59
2024/02/01 12:00:20;;;;;;;1.67;1.40;;;13.00;99.90;;;;;;5052853;28;20213;-59
2024/02/01 12:02:47;;;;;;;2.17;1.40;;;13.00;99.90;;;;;;5053241;28;20201;-59
2024/02/01 12:05:17;;;;;;;1.60;1.23;;;13.00;99.90;;;;;;5052532;28;20233;-59
2024/02/01 12:07:44;;;;;;;1.17;1.07;;;13.00;99.90;;;;;;5052916;28;20209;-59
2024/02/01 12:10:12;;;;;;;1.67;1.40;;;12.90;99.90;;;;;;5052692;28;20226;-59
2024/02/01 12:12:40;;;;;;;1.40;1.17;;;13.00;99.90;;;;;;5052707;28;20598;-59
2024/02/01 12:15:08;;;;;;;2.47;1.40;;;13.00;99.90;;;;;;5052614;28;20229;-59
2024/02/01 12:17:42;;;;;;;3.07;1.43;;;13.00;99.90;;;;;;5052311;28;20205;-60
2024/02/01 12:20:10;;;;;;;1.80;1.30;;;13.00;99.90;;;;;;5052260;28;20690;-59
2024/02/01 12:22:37;;;;;;;1.50;1.40;;;13.00;99.90;;;;;;5052487;28;20686;-60
2024/02/01 12:25:04;;;;;;;3.00;1.30;;;13.00;99.90;;;;;;5052282;28;20221;-59
2024/02/01 12:27:31;;;;;;;1.73;1.57;;;12.90;99.90;;;;;;5052237;28;20289;-59
2024/02/01 12:29:58;;;;;;;2.57;1.63;;;13.00;99.90;;;;;;5052079;28;20248;-59
2024/02/01 12:32:26;;;;;;;1.40;1.27;;;13.00;99.90;;;;;;5051954;28;20288;-59
2024/02/01 12:34:54;;;;;;;2.60;1.60;;;13.00;99.90;;;;;;5052549;28;20256;-58
2024/02/01 12:37:21;;;;;;;1.73;1.50;;;13.00;99.90;;;;;;5043843;28;20208;-58
2024/02/01 12:39:48;;;;;;;1.80;1.70;;;13.00;99.90;;;;;;5051898;28;20248;-58
2024/02/01 12:42:15;;;;;;;6.17;2.70;;;12.90;99.90;;;;;;5052056;28;20209;-58
2024/02/01 12:44:42;;;;;;;3.27;1.47;;;12.90;99.90;;;;;;5051784;28;20628;-58
2024/02/01 12:47:09;;;;;;;1.77;1.40;;;12.90;99.90;;;;;;5051771;28;20698;-60
2024/02/01 12:49:36;;;;;;;1.80;1.70;;;12.80;99.90;;;;;;5052160;28;20201;-60
2024/02/01 12:52:05;;;;;;;1.90;1.60;;;12.70;99.90;;;;;;5052003;28;20210;-59
2024/02/01 12:54:33;;;;;;;1.60;1.50;;;12.60;99.90;;;;;;5051649;28;20271;-59
2024/02/01 12:57:00;;;;;;;2.07;1.70;;;12.60;99.90;;;;;;5051497;28;20209;-58
2024/02/01 12:59:27;;;;;;;1.77;1.63;;;12.60;99.90;;;;;;5051719;28;20198;-58
2024/02/01 13:01:56;;;;;;;3.00;1.90;;;12.60;99.90;;;;;;5051718;28;20210;-60
2024/02/01 13:04:23;;;;;;;1.83;1.57;;;12.60;99.90;;;;;;5051357;28;20226;-59
2024/02/01 13:06:50;;;;;;;2.53;2.00;;;12.60;99.90;;;;;;5051444;28;20648;-59
2024/02/01 13:09:29;;;;;;;1.83;1.57;;;12.60;99.90;;;;;;5051283;28;20236;-59
2024/02/01 13:11:58;;;;;;;2.10;1.70;;;12.60;99.90;;;;;;5051524;28;20251;-59
2024/02/01 13:14:28;;;;;;;3.43;1.73;;;12.70;99.90;;;;;;5043764;28;20263;-59
2024/02/01 13:16:56;;;;;;;2.17;1.80;;;12.80;99.90;;;;;;5051284;28;20217;-59
2024/02/01 13:19:24;;;;;;;1.60;1.50;;;12.80;99.90;;;;;;5043396;28;20289;-59
2024/02/01 13:21:51;;;;;;;2.10;1.90;;;12.80;99.90;;;;;;5051352;28;20683;-59
2024/02/01 13:24:19;;;;;;;1.80;1.57;;;12.80;99.90;;;;;;5051602;28;20229;-59
2024/02/01 13:26:47;;;;;;;2.60;1.47;;;12.80;99.90;;;;;;5051176;28;20651;-58